createdAt,value
2017-09-17T00:00:34.109Z,76.44
2017-09-17T00:03:00.320Z,77.06
2017-09-17T00:05:26.596Z,77.61
2017-09-17T00:07:52.814Z,78.73
2017-09-17T00:10:19.030Z,77.21
2017-09-17T00:12:45.308Z,75.32
2017-09-17T00:15:11.657Z,74.60
2017-09-17T00:17:37.870Z,77.47
2017-09-17T00:20:04.150Z,77.98
2017-09-17T00:22:30.375Z,78.25
2017-09-17T00:24:56.576Z,78.25
2017-09-17T00:27:22.826Z,77.26
2017-09-17T00:29:49.021Z,78.55
2017-09-17T00:32:15.296Z,78.30
2017-09-17T00:34:41.539Z,77.11
2017-09-17T00:37:07.755Z,78.40
2017-09-17T00:39:33.985Z,78.17
2017-09-17T00:42:00.256Z,79.24
2017-09-17T00:44:26.458Z,80.10
2017-09-17T00:46:52.665Z,80.49
2017-09-17T00:49:18.916Z,80.37
2017-09-17T00:51:45.136Z,80.35
2017-09-17T00:54:11.342Z,80.01
2017-09-17T00:56:37.614Z,80.72
2017-09-17T00:59:03.849Z,81.73
2017-09-17T01:01:30.067Z,82.10
2017-09-17T01:03:56.348Z,82.00
2017-09-17T01:06:22.654Z,81.86
2017-09-17T01:08:48.857Z,81.40
2017-09-17T01:11:15.170Z,81.30
2017-09-17T01:13:41.399Z,81.98
2017-09-17T01:16:07.603Z,81.31
2017-09-17T01:18:33.873Z,81.43
2017-09-17T01:21:00.109Z,81.43
2017-09-17T01:23:26.510Z,81.15
2017-09-17T01:25:52.785Z,80.68
2017-09-17T01:28:19.001Z,81.15
2017-09-17T01:30:45.201Z,81.11
2017-09-17T01:33:11.481Z,81.15
2017-09-17T01:35:37.710Z,81.47
2017-09-17T01:38:04.033Z,81.85
2017-09-17T01:40:30.300Z,81.11
2017-09-17T01:42:56.528Z,80.23
2017-09-17T01:45:22.751Z,79.40
2017-09-17T01:47:49.021Z,79.80
2017-09-17T01:50:15.229Z,80.09
2017-09-17T01:52:41.462Z,80.83
2017-09-17T01:55:07.734Z,81.31
2017-09-17T01:57:33.932Z,81.50
2017-09-17T02:00:00.160Z,81.59
2017-09-17T02:02:26.420Z,82.13
2017-09-17T02:04:52.631Z,82.22
2017-09-17T02:07:18.840Z,81.78
2017-09-17T02:09:45.138Z,81.61
2017-09-17T02:12:11.352Z,81.95
2017-09-17T02:14:37.570Z,82.21
2017-09-17T02:17:03.860Z,82.35
2017-09-17T02:19:30.073Z,82.61
2017-09-17T02:21:56.280Z,83.12
2017-09-17T02:24:22.560Z,83.45
2017-09-17T02:26:48.774Z,83.44
2017-09-17T02:29:15.009Z,82.65
2017-09-17T02:31:41.284Z,82.30
2017-09-17T02:34:07.516Z,82.11
2017-09-17T02:36:33.757Z,82.16
2017-09-17T02:39:00.034Z,82.13
2017-09-17T02:41:26.257Z,82.25
2017-09-17T02:43:52.480Z,81.89
2017-09-17T02:46:18.762Z,82.13
2017-09-17T02:48:44.987Z,82.52
2017-09-17T02:51:11.215Z,81.72
2017-09-17T02:53:37.508Z,81.97
2017-09-17T02:56:03.724Z,81.99
2017-09-17T02:58:29.946Z,82.10
2017-09-17T03:00:56.228Z,81.82
2017-09-17T03:03:22.459Z,82.29
2017-09-17T03:05:48.689Z,82.79
2017-09-17T03:08:14.961Z,82.86
2017-09-17T03:10:41.170Z,82.90
2017-09-17T03:13:07.387Z,81.88
2017-09-17T03:15:33.670Z,82.21
2017-09-17T03:17:59.887Z,82.53
2017-09-17T03:20:26.110Z,83.04
2017-09-17T03:22:52.393Z,82.56
2017-09-17T03:25:18.606Z,82.46
2017-09-17T03:27:44.832Z,81.96
2017-09-17T03:30:11.102Z,82.04
2017-09-17T03:32:37.304Z,82.68
2017-09-17T03:35:03.509Z,83.20
2017-09-17T03:37:29.777Z,82.44
2017-09-17T03:39:56.000Z,81.58
2017-09-17T03:42:22.213Z,80.90
2017-09-17T03:44:48.505Z,81.70
2017-09-17T03:47:14.726Z,82.10
2017-09-17T03:49:40.943Z,82.27
2017-09-17T03:52:07.211Z,82.51
2017-09-17T03:54:33.419Z,82.31
2017-09-17T03:56:59.657Z,81.97
2017-09-17T03:59:26.175Z,81.03
2017-09-17T04:01:52.408Z,81.97
2017-09-17T04:04:18.634Z,81.01
2017-09-17T04:06:44.915Z,81.88
2017-09-17T04:09:11.131Z,81.58
2017-09-17T04:11:37.356Z,81.45
2017-09-17T04:14:03.634Z,79.78
2017-09-17T04:16:29.844Z,77.30
2017-09-17T04:18:56.049Z,75.99
2017-09-17T04:21:22.309Z,74.00
2017-09-17T04:23:48.511Z,73.21
2017-09-17T04:26:14.723Z,71.88
2017-09-17T04:28:40.988Z,70.23
2017-09-17T04:31:07.194Z,67.87
2017-09-17T04:33:33.402Z,65.12
2017-09-17T04:35:59.685Z,63.04
2017-09-17T04:38:25.907Z,61.78
2017-09-17T04:40:52.127Z,59.98
2017-09-17T04:43:18.428Z,58.52
2017-09-17T04:45:44.650Z,57.09
2017-09-17T04:48:10.883Z,55.55
2017-09-17T04:50:37.153Z,54.21
2017-09-17T04:53:03.383Z,53.83
2017-09-17T04:55:29.598Z,52.92
2017-09-17T04:57:55.864Z,51.76
2017-09-17T05:00:22.083Z,50.23
2017-09-17T05:02:48.361Z,49.58
2017-09-17T05:05:14.644Z,48.96
2017-09-17T05:07:40.852Z,48.25
2017-09-17T05:10:07.049Z,48.33
2017-09-17T05:12:33.300Z,47.18
2017-09-17T05:14:59.610Z,47.66
2017-09-17T05:17:25.810Z,47.38
2017-09-17T05:19:52.108Z,45.30
2017-09-17T05:22:18.314Z,44.43
2017-09-17T05:24:44.524Z,43.06
2017-09-17T05:27:10.811Z,42.77
2017-09-17T05:29:37.054Z,42.47
2017-09-17T05:32:03.269Z,41.34
2017-09-17T05:34:29.563Z,41.30
2017-09-17T05:36:55.792Z,39.40
2017-09-17T05:39:22.012Z,38.96
2017-09-17T05:41:48.265Z,38.49
2017-09-17T05:44:14.559Z,36.97
2017-09-17T05:46:40.752Z,36.24
2017-09-17T05:49:07.015Z,34.62
2017-09-17T05:51:33.220Z,33.35
2017-09-17T05:53:59.424Z,33.66
2017-09-17T05:56:25.681Z,32.80
2017-09-17T05:58:51.899Z,32.68
2017-09-17T06:01:18.115Z,32.68
2017-09-17T06:03:44.382Z,32.98
2017-09-17T06:06:10.592Z,33.16
2017-09-17T06:08:36.796Z,32.72
2017-09-17T06:11:03.071Z,33.15
2017-09-17T06:13:29.300Z,32.49
2017-09-17T06:15:55.493Z,32.48
2017-09-17T06:18:21.756Z,32.05
2017-09-17T06:20:47.945Z,30.95
2017-09-17T06:23:14.158Z,30.08
2017-09-17T06:25:40.425Z,29.72
2017-09-17T06:28:06.637Z,30.26
2017-09-17T06:30:32.824Z,30.41
2017-09-17T06:32:59.136Z,30.79
2017-09-17T06:35:25.346Z,29.21
2017-09-17T06:37:51.565Z,27.84
2017-09-17T06:40:17.822Z,27.54
2017-09-17T06:42:44.018Z,27.77
2017-09-17T06:45:10.214Z,27.51
2017-09-17T06:47:36.495Z,28.09
2017-09-17T06:50:02.716Z,28.23
2017-09-17T06:52:28.942Z,27.64
2017-09-17T06:54:55.208Z,28.67
2017-09-17T06:57:21.407Z,27.92
2017-09-17T06:59:47.669Z,26.82
2017-09-17T07:02:13.944Z,25.76
2017-09-17T07:04:40.168Z,24.09
2017-09-17T07:07:06.378Z,25.62
2017-09-17T07:09:32.650Z,24.86
2017-09-17T07:11:58.866Z,24.96
2017-09-17T07:14:25.238Z,23.42
2017-09-17T07:16:51.505Z,22.50
2017-09-17T07:19:17.718Z,22.61
2017-09-17T07:21:43.926Z,22.22
2017-09-17T07:24:10.205Z,22.49
2017-09-17T07:26:36.445Z,22.17
2017-09-17T07:29:02.668Z,22.18
2017-09-17T07:31:28.952Z,22.23
2017-09-17T07:33:55.179Z,22.09
2017-09-17T07:36:21.503Z,21.94
2017-09-17T07:38:47.774Z,22.35
2017-09-17T07:41:13.977Z,24.30
2017-09-17T07:43:40.192Z,23.04
2017-09-17T07:46:06.455Z,22.56
2017-09-17T07:48:32.666Z,22.95
2017-09-17T07:50:58.890Z,20.42
2017-09-17T07:53:25.168Z,20.23
2017-09-17T07:55:51.386Z,19.82
2017-09-17T07:58:17.738Z,21.37
2017-09-17T08:00:44.022Z,20.04
2017-09-17T08:03:10.256Z,20.78
2017-09-17T08:05:36.474Z,19.38
2017-09-17T08:08:02.766Z,19.50
2017-09-17T08:10:29.110Z,19.26
2017-09-17T08:12:55.325Z,18.85
2017-09-17T08:15:21.628Z,19.10
2017-09-17T08:17:47.856Z,18.74
2017-09-17T08:20:14.086Z,19.60
2017-09-17T08:22:40.355Z,18.88
2017-09-17T08:25:06.584Z,19.06
2017-09-17T08:27:32.816Z,19.02
2017-09-17T08:29:59.109Z,17.06
2017-09-17T08:32:25.339Z,17.17
2017-09-17T08:34:51.555Z,17.82
2017-09-17T08:37:17.847Z,16.11
2017-09-17T08:39:44.055Z,15.79
2017-09-17T08:42:10.263Z,16.58
2017-09-17T08:44:36.522Z,14.97
2017-09-17T08:47:02.733Z,15.33
2017-09-17T08:49:28.922Z,14.53
2017-09-17T08:51:55.174Z,15.23
2017-09-17T08:54:21.370Z,15.20
2017-09-17T08:56:47.583Z,15.68
2017-09-17T08:59:13.832Z,15.56
2017-09-17T09:01:40.029Z,15.04
2017-09-17T09:04:06.365Z,15.94
2017-09-17T09:06:32.685Z,15.17
2017-09-17T09:08:58.876Z,14.73
2017-09-17T09:11:25.088Z,14.87
2017-09-17T09:13:51.366Z,15.69
2017-09-17T09:16:17.554Z,15.36
2017-09-17T09:18:43.739Z,15.30
2017-09-17T09:21:09.997Z,15.16
2017-09-17T09:23:36.207Z,14.48
2017-09-17T09:26:02.420Z,14.08
2017-09-17T09:28:28.686Z,13.75
2017-09-17T09:30:54.904Z,13.79
2017-09-17T09:33:21.134Z,13.75
2017-09-17T09:35:47.408Z,13.75
2017-09-17T09:38:13.597Z,13.37
2017-09-17T09:40:39.813Z,13.11
2017-09-17T09:43:06.084Z,12.75
2017-09-17T09:45:32.278Z,11.97
2017-09-17T09:47:58.468Z,12.17
2017-09-17T09:50:24.731Z,11.94
2017-09-17T09:52:50.964Z,10.81
2017-09-17T09:55:17.180Z,11.00
2017-09-17T09:57:43.440Z,10.27
2017-09-17T10:00:09.627Z,10.34
2017-09-17T10:02:35.823Z,10.36
2017-09-17T10:05:02.173Z,11.26
2017-09-17T10:07:28.386Z,11.50
2017-09-17T10:09:54.586Z,10.80
2017-09-17T10:12:20.854Z,11.30
2017-09-17T10:14:47.077Z,11.36
2017-09-17T10:17:13.279Z,11.49
2017-09-17T10:19:39.525Z,11.16
2017-09-17T10:22:05.768Z,10.72
2017-09-17T10:24:31.955Z,11.76
2017-09-17T10:26:58.220Z,11.61
2017-09-17T10:29:24.439Z,11.06
2017-09-17T10:31:50.655Z,11.00
2017-09-17T10:34:16.913Z,11.66
2017-09-17T10:36:43.126Z,11.58
2017-09-17T10:39:09.340Z,11.04
2017-09-17T10:41:35.590Z,10.58
2017-09-17T10:44:01.843Z,9.62
2017-09-17T10:46:28.029Z,9.36
2017-09-17T10:48:54.278Z,10.06
2017-09-17T10:51:20.485Z,10.34
2017-09-17T10:53:46.767Z,11.18
2017-09-17T10:56:13.030Z,11.13
2017-09-17T10:58:39.218Z,11.70
2017-09-17T11:01:05.426Z,10.33
2017-09-17T11:03:31.664Z,9.22
2017-09-17T11:05:57.861Z,9.86
2017-09-17T11:08:24.074Z,9.15
2017-09-17T11:10:50.305Z,8.86
2017-09-17T11:13:16.520Z,9.47
2017-09-17T11:15:42.723Z,9.00
2017-09-17T11:18:09.081Z,8.92
2017-09-17T11:20:35.298Z,7.51
2017-09-17T11:23:01.509Z,8.08
2017-09-17T11:25:27.765Z,7.17
2017-09-17T11:27:53.951Z,7.81
2017-09-17T11:30:20.160Z,7.99
2017-09-17T11:32:46.424Z,7.33
2017-09-17T11:35:12.620Z,7.62
2017-09-17T11:37:38.804Z,7.46
2017-09-17T11:40:05.072Z,8.35
2017-09-17T11:42:31.269Z,8.64
2017-09-17T11:44:57.492Z,9.09
2017-09-17T11:47:23.745Z,9.07
2017-09-17T11:49:49.960Z,8.63
2017-09-17T11:52:16.192Z,8.15
2017-09-17T11:54:42.425Z,7.64
2017-09-17T11:57:08.628Z,8.31
2017-09-17T11:59:34.821Z,8.52
2017-09-17T12:02:01.081Z,7.52
2017-09-17T12:04:27.277Z,7.38
2017-09-17T12:06:53.483Z,7.80
2017-09-17T12:09:19.763Z,7.23
2017-09-17T12:11:45.977Z,7.88
2017-09-17T12:14:12.174Z,8.58
2017-09-17T12:16:38.463Z,9.23
2017-09-17T12:19:04.657Z,8.12
2017-09-17T12:21:30.882Z,8.25
2017-09-17T12:23:57.162Z,7.86
2017-09-17T12:26:23.367Z,8.03
2017-09-17T12:28:49.568Z,9.19
2017-09-17T12:31:15.853Z,9.67
2017-09-17T12:33:42.065Z,8.65
2017-09-17T12:36:08.276Z,9.10
2017-09-17T12:38:34.537Z,9.47
2017-09-17T12:41:00.745Z,10.33
2017-09-17T12:43:26.945Z,8.43
2017-09-17T12:45:53.197Z,10.03
2017-09-17T12:48:19.396Z,10.16
2017-09-17T12:50:45.599Z,9.73
2017-09-17T12:53:11.871Z,9.93
2017-09-17T12:55:38.082Z,9.87
2017-09-17T12:58:05.190Z,9.76
2017-09-17T13:00:32.896Z,9.56
2017-09-17T13:02:59.250Z,10.07
2017-09-17T13:05:25.476Z,10.17
2017-09-17T13:07:51.760Z,10.75
2017-09-17T13:10:18.255Z,10.65
2017-09-17T13:12:44.469Z,9.54
2017-09-17T13:15:10.742Z,9.77
2017-09-17T13:17:37.071Z,10.22
2017-09-17T13:20:03.257Z,10.52
2017-09-17T13:22:29.564Z,9.91
2017-09-17T13:24:55.780Z,11.02
2017-09-17T13:27:21.995Z,11.41
2017-09-17T13:29:48.267Z,11.92
2017-09-17T13:32:14.456Z,12.31
2017-09-17T13:34:40.681Z,13.33
2017-09-17T13:37:06.942Z,14.30
2017-09-17T13:39:33.154Z,14.56
2017-09-17T13:41:59.362Z,14.65
2017-09-17T13:44:25.617Z,15.41
2017-09-17T13:46:51.820Z,15.89
2017-09-17T13:49:18.000Z,15.32
2017-09-17T13:51:44.273Z,15.33
2017-09-17T13:54:10.456Z,15.57
2017-09-17T13:56:36.657Z,15.67
2017-09-17T13:59:02.924Z,15.74
2017-09-17T14:01:29.125Z,15.83
2017-09-17T14:03:55.405Z,15.75
2017-09-17T14:06:21.655Z,15.78
2017-09-17T14:08:47.858Z,15.72
2017-09-17T14:11:14.066Z,16.06
2017-09-17T14:13:40.380Z,16.51
2017-09-17T14:16:06.582Z,16.98
2017-09-17T14:18:32.819Z,17.06
2017-09-17T14:20:59.101Z,16.58
2017-09-17T14:23:25.423Z,16.37
2017-09-17T14:25:51.639Z,16.19
2017-09-17T14:28:17.901Z,16.92
2017-09-17T14:30:44.327Z,16.95
2017-09-17T14:33:10.509Z,16.84
2017-09-17T14:35:36.759Z,16.87
2017-09-17T14:38:02.979Z,16.95
2017-09-17T14:40:29.189Z,17.01
2017-09-17T14:42:55.482Z,17.11
2017-09-17T14:45:21.697Z,17.05
2017-09-17T14:47:47.897Z,16.94
2017-09-17T14:50:14.153Z,17.78
2017-09-17T14:52:40.342Z,17.46
2017-09-17T14:55:06.524Z,17.99
2017-09-17T14:57:32.722Z,17.59
2017-09-17T14:59:58.918Z,17.49
2017-09-17T15:02:25.170Z,17.95
2017-09-17T15:04:51.391Z,17.79
2017-09-17T15:07:17.601Z,17.61
2017-09-17T15:09:43.869Z,18.12
2017-09-17T15:12:10.197Z,18.69
2017-09-17T15:14:36.404Z,18.80
2017-09-17T15:17:02.660Z,18.97
2017-09-17T15:19:28.867Z,19.66
2017-09-17T15:21:55.094Z,19.29
2017-09-17T15:24:21.387Z,19.86
2017-09-17T15:26:47.600Z,20.58
2017-09-17T15:29:13.818Z,21.08
2017-09-17T15:31:40.076Z,21.31
2017-09-17T15:34:06.291Z,21.79
2017-09-17T15:36:32.494Z,22.35
2017-09-17T15:38:58.744Z,24.55
2017-09-17T15:41:24.947Z,27.09
2017-09-17T15:43:51.145Z,26.69
2017-09-17T15:46:17.378Z,27.27
2017-09-17T15:48:43.569Z,27.78
2017-09-17T15:51:09.776Z,30.75
2017-09-17T15:53:36.039Z,33.00
2017-09-17T15:56:02.235Z,31.46
2017-09-17T15:58:28.428Z,31.62
2017-09-17T16:00:54.690Z,29.92
2017-09-17T16:03:20.911Z,33.75
2017-09-17T16:05:47.121Z,33.98
2017-09-17T16:08:13.401Z,34.26
2017-09-17T16:10:39.639Z,37.16
2017-09-17T16:13:05.852Z,37.74
2017-09-17T16:15:32.116Z,36.86
2017-09-17T16:17:58.322Z,36.30
2017-09-17T16:20:24.536Z,37.43
2017-09-17T16:22:50.798Z,37.32
2017-09-17T16:25:17.001Z,39.72
2017-09-17T16:27:43.206Z,40.20
2017-09-17T16:30:09.466Z,40.35
2017-09-17T16:32:35.672Z,37.49
2017-09-17T16:35:01.872Z,40.37
2017-09-17T16:37:28.118Z,35.89
2017-09-17T16:39:54.331Z,38.74
2017-09-17T16:42:20.534Z,39.18
2017-09-17T16:44:46.794Z,41.85
2017-09-17T16:47:13.000Z,43.63
2017-09-17T16:49:39.205Z,41.71
2017-09-17T16:52:05.477Z,40.12
2017-09-17T16:54:31.680Z,44.42
2017-09-17T16:56:57.888Z,45.86
2017-09-17T16:59:24.131Z,41.87
2017-09-17T17:01:50.329Z,44.01
2017-09-17T17:04:16.530Z,42.02
2017-09-17T17:06:42.784Z,41.91
2017-09-17T17:09:08.987Z,42.05
2017-09-17T17:11:35.178Z,42.31
2017-09-17T17:14:01.412Z,39.18
2017-09-17T17:16:27.753Z,40.47
2017-09-17T17:18:53.969Z,41.21
2017-09-17T17:21:20.229Z,40.82
2017-09-17T17:23:46.440Z,46.74
2017-09-17T17:26:12.645Z,44.71
2017-09-17T17:28:38.900Z,47.68
2017-09-17T17:31:05.113Z,46.69
2017-09-17T17:33:31.308Z,46.53
2017-09-17T17:35:57.563Z,46.54
2017-09-17T17:38:23.779Z,49.36
2017-09-17T17:40:49.984Z,48.46
2017-09-17T17:43:16.230Z,49.57
2017-09-17T17:45:42.443Z,49.34
2017-09-17T17:48:08.649Z,44.90
2017-09-17T17:50:34.911Z,41.80
2017-09-17T17:53:01.119Z,39.02
2017-09-17T17:55:27.307Z,37.47
2017-09-17T17:57:53.555Z,44.48
2017-09-17T18:00:19.747Z,35.91
2017-09-17T18:02:45.945Z,38.84
2017-09-17T18:05:12.196Z,37.29
2017-09-17T18:07:38.407Z,41.26
2017-09-17T18:10:04.627Z,35.36
2017-09-17T18:12:30.988Z,42.86
2017-09-17T18:14:57.234Z,44.40
2017-09-17T18:17:23.443Z,43.82
2017-09-17T18:19:49.751Z,40.76
2017-09-17T18:22:16.093Z,43.97
2017-09-17T18:24:42.304Z,40.14
2017-09-17T18:27:08.574Z,44.91
2017-09-17T18:29:34.783Z,38.93
2017-09-17T18:32:00.985Z,45.95
2017-09-17T18:34:27.245Z,46.82
2017-09-17T18:36:53.453Z,43.48
2017-09-17T18:39:19.668Z,47.05
2017-09-17T18:41:45.978Z,49.37
2017-09-17T18:44:12.194Z,45.78
2017-09-17T18:46:38.407Z,44.39
2017-09-17T18:49:04.684Z,48.34
2017-09-17T18:51:30.910Z,47.14
2017-09-17T18:53:57.125Z,47.52
2017-09-17T18:56:23.392Z,47.53
2017-09-17T18:58:49.613Z,46.29
2017-09-17T19:01:15.834Z,43.16
2017-09-17T19:03:42.128Z,49.11
2017-09-17T19:06:08.350Z,48.89
2017-09-17T19:08:34.574Z,50.37
2017-09-17T19:11:00.870Z,47.26
2017-09-17T19:13:27.078Z,50.58
2017-09-17T19:15:53.307Z,50.84
2017-09-17T19:18:19.600Z,48.79
2017-09-17T19:20:45.837Z,48.53
2017-09-17T19:23:12.265Z,50.58
2017-09-17T19:25:38.523Z,53.12
2017-09-17T19:28:04.745Z,47.66
2017-09-17T19:30:31.007Z,50.84
2017-09-17T19:32:57.266Z,49.19
2017-09-17T19:35:23.494Z,49.20
2017-09-17T19:37:49.715Z,50.61
2017-09-17T19:40:15.986Z,47.44
2017-09-17T19:42:42.187Z,52.78
2017-09-17T19:45:08.391Z,51.91
2017-09-17T19:47:34.693Z,50.75
2017-09-17T19:50:00.881Z,51.76
2017-09-17T19:52:27.223Z,55.77
2017-09-17T19:54:53.495Z,53.70
2017-09-17T19:57:19.877Z,54.10
2017-09-17T19:59:46.100Z,52.33
2017-09-17T20:02:12.529Z,54.54
2017-09-17T20:04:38.825Z,56.83
2017-09-17T20:07:05.051Z,56.05
2017-09-17T20:09:31.358Z,57.08
2017-09-17T20:11:57.584Z,56.15
2017-09-17T20:14:23.849Z,56.07
2017-09-17T20:16:50.139Z,58.21
2017-09-17T20:19:16.473Z,59.74
2017-09-17T20:21:42.789Z,57.69
2017-09-17T20:24:09.047Z,56.90
2017-09-17T20:26:35.245Z,56.41
2017-09-17T20:29:01.460Z,58.86
2017-09-17T20:31:27.716Z,58.75
2017-09-17T20:33:53.939Z,57.36
2017-09-17T20:36:20.165Z,58.42
2017-09-17T20:38:46.449Z,58.43
2017-09-17T20:41:12.643Z,55.86
2017-09-17T20:43:38.870Z,55.61
2017-09-17T20:46:05.130Z,54.54
2017-09-17T20:48:31.477Z,54.36
2017-09-17T20:50:57.700Z,56.11
2017-09-17T20:53:23.955Z,58.42
2017-09-17T20:55:50.166Z,54.11
2017-09-17T20:58:16.404Z,56.96
2017-09-17T21:00:42.609Z,58.37
2017-09-17T21:03:08.814Z,58.53
2017-09-17T21:05:35.060Z,54.17
2017-09-17T21:08:01.272Z,55.47
2017-09-17T21:10:27.493Z,54.90
2017-09-17T21:12:53.766Z,56.36
2017-09-17T21:15:20.001Z,58.48
2017-09-17T21:17:46.227Z,52.48
2017-09-17T21:20:12.481Z,58.12
2017-09-17T21:22:38.712Z,52.06
2017-09-17T21:25:04.999Z,59.65
2017-09-17T21:27:31.269Z,59.89
2017-09-17T21:29:57.482Z,59.65
2017-09-17T21:32:23.685Z,58.39
2017-09-17T21:34:49.940Z,62.43
2017-09-17T21:37:16.163Z,62.81
2017-09-17T21:39:42.380Z,61.74
2017-09-17T21:42:08.643Z,59.61
2017-09-17T21:44:34.826Z,61.93
2017-09-17T21:47:01.034Z,63.67
2017-09-17T21:49:27.322Z,61.14
2017-09-17T21:51:53.520Z,60.05
2017-09-17T21:54:19.715Z,60.61
2017-09-17T21:56:45.968Z,63.36
2017-09-17T21:59:12.183Z,62.13
2017-09-17T22:01:38.387Z,60.42
2017-09-17T22:04:04.652Z,60.59
2017-09-17T22:06:30.880Z,58.94
2017-09-17T22:08:57.106Z,59.45
2017-09-17T22:11:23.383Z,55.98
2017-09-17T22:13:49.612Z,58.63
2017-09-17T22:16:15.838Z,59.16
2017-09-17T22:18:42.106Z,58.13
2017-09-17T22:21:08.314Z,54.89
2017-09-17T22:23:34.526Z,53.98
2017-09-17T22:26:00.782Z,53.68
2017-09-17T22:28:26.992Z,53.22
2017-09-17T22:30:53.198Z,53.80
2017-09-17T22:33:19.472Z,53.01
2017-09-17T22:35:45.689Z,53.12
2017-09-17T22:38:11.908Z,53.22
2017-09-17T22:40:38.183Z,52.38
2017-09-17T22:43:04.391Z,52.55
2017-09-17T22:45:30.619Z,51.75
2017-09-17T22:47:56.901Z,51.22
2017-09-17T22:50:23.115Z,51.18
2017-09-17T22:52:49.324Z,51.42
2017-09-17T22:55:15.583Z,51.90
2017-09-17T22:57:41.831Z,51.50
2017-09-17T23:00:08.112Z,51.72
2017-09-17T23:02:34.393Z,52.06
2017-09-17T23:05:00.782Z,51.94
2017-09-17T23:07:26.990Z,52.12
2017-09-17T23:09:53.272Z,51.81
2017-09-17T23:12:19.497Z,51.80
2017-09-17T23:14:45.728Z,51.84
2017-09-17T23:17:12.005Z,52.23
2017-09-17T23:19:38.216Z,52.54
2017-09-17T23:22:04.447Z,52.37
2017-09-17T23:24:30.733Z,52.67
2017-09-17T23:26:56.954Z,52.97
2017-09-17T23:29:23.164Z,52.51
2017-09-17T23:31:49.441Z,52.52
2017-09-17T23:34:15.655Z,52.65
2017-09-17T23:36:41.979Z,52.53
2017-09-17T23:39:08.256Z,52.07
2017-09-17T23:41:34.480Z,52.21
2017-09-17T23:44:00.713Z,52.62
2017-09-17T23:46:26.985Z,52.77
2017-09-17T23:48:53.201Z,53.25
2017-09-17T23:51:19.554Z,53.90
2017-09-17T23:53:45.838Z,54.19
2017-09-17T23:56:12.052Z,55.59
2017-09-17T23:58:38.275Z,55.32
